sensor_id;sensor_type;location;lat;lon;timestamp;P1;durP1;ratioP1;P2;durP2;ratioP2
59970;SDS011;45825;45.434;9.116;2023-04-16T00:00:12;7.20;;;3.80;;
59970;SDS011;45825;45.434;9.116;2023-04-16T00:02:38;6.40;;;3.70;;
59970;SDS011;45825;45.434;9.116;2023-04-16T00:05:03;9.55;;;4.15;;
59970;SDS011;45825;45.434;9.116;2023-04-16T00:07:30;7.65;;;4.25;;
59970;SDS011;45825;45.434;9.116;2023-04-16T00:09:56;8.18;;;4.05;;
59970;SDS011;45825;45.434;9.116;2023-04-16T00:12:21;8.93;;;4.13;;
59970;SDS011;45825;45.434;9.116;2023-04-16T00:14:47;7.43;;;3.95;;
59970;SDS011;45825;45.434;9.116;2023-04-16T00:17:14;8.68;;;3.92;;
59970;SDS011;45825;45.434;9.116;2023-04-16T00:19:39;7.30;;;3.85;;
59970;SDS011;45825;45.434;9.116;2023-04-16T00:22:04;8.45;;;4.10;;
59970;SDS011;45825;45.434;9.116;2023-04-16T00:24:30;6.97;;;3.97;;
59970;SDS011;45825;45.434;9.116;2023-04-16T00:26:55;7.50;;;3.95;;
59970;SDS011;45825;45.434;9.116;2023-04-16T00:29:21;9.00;;;3.80;;
59970;SDS011;45825;45.434;9.116;2023-04-16T00:31:47;6.25;;;3.58;;
59970;SDS011;45825;45.434;9.116;2023-04-16T00:34:12;7.30;;;3.72;;
59970;SDS011;45825;45.434;9.116;2023-04-16T00:36:37;5.95;;;3.58;;
59970;SDS011;45825;45.434;9.116;2023-04-16T00:39:03;9.38;;;4.03;;
59970;SDS011;45825;45.434;9.116;2023-04-16T00:41:28;7.72;;;3.30;;
59970;SDS011;45825;45.434;9.116;2023-04-16T00:43:53;7.50;;;4.07;;
59970;SDS011;45825;45.434;9.116;2023-04-16T00:46:20;7.78;;;3.72;;
59970;SDS011;45825;45.434;9.116;2023-04-16T00:48:47;7.07;;;3.85;;
59970;SDS011;45825;45.434;9.116;2023-04-16T00:51:17;6.95;;;3.97;;
59970;SDS011;45825;45.434;9.116;2023-04-16T00:53:43;5.68;;;3.20;;
59970;SDS011;45825;45.434;9.116;2023-04-16T00:56:09;7.90;;;3.30;;
59970;SDS011;45825;45.434;9.116;2023-04-16T00:58:36;7.22;;;3.47;;
59970;SDS011;45825;45.434;9.116;2023-04-16T01:01:01;7.03;;;3.33;;
59970;SDS011;45825;45.434;9.116;2023-04-16T01:03:44;5.57;;;3.25;;
59970;SDS011;45825;45.434;9.116;2023-04-16T01:06:11;7.45;;;3.47;;
59970;SDS011;45825;45.434;9.116;2023-04-16T01:08:36;7.18;;;3.20;;
59970;SDS011;45825;45.434;9.116;2023-04-16T01:11:02;6.85;;;3.30;;
59970;SDS011;45825;45.434;9.116;2023-04-16T01:13:28;6.72;;;3.13;;
59970;SDS011;45825;45.434;9.116;2023-04-16T01:15:53;6.88;;;3.33;;
59970;SDS011;45825;45.434;9.116;2023-04-16T01:18:20;6.15;;;3.35;;
59970;SDS011;45825;45.434;9.116;2023-04-16T01:20:46;6.97;;;3.00;;
59970;SDS011;45825;45.434;9.116;2023-04-16T01:23:13;7.68;;;3.83;;
59970;SDS011;45825;45.434;9.116;2023-04-16T01:25:39;6.53;;;2.92;;
59970;SDS011;45825;45.434;9.116;2023-04-16T01:28:04;8.10;;;3.30;;
59970;SDS011;45825;45.434;9.116;2023-04-16T01:30:30;6.55;;;3.30;;
59970;SDS011;45825;45.434;9.116;2023-04-16T01:32:55;7.13;;;3.28;;
59970;SDS011;45825;45.434;9.116;2023-04-16T01:35:22;7.18;;;2.83;;
59970;SDS011;45825;45.434;9.116;2023-04-16T01:37:48;6.88;;;2.70;;
59970;SDS011;45825;45.434;9.116;2023-04-16T01:40:14;5.95;;;2.58;;
59970;SDS011;45825;45.434;9.116;2023-04-16T01:42:42;8.38;;;2.80;;
59970;SDS011;45825;45.434;9.116;2023-04-16T01:45:08;5.80;;;2.47;;
59970;SDS011;45825;45.434;9.116;2023-04-16T01:47:33;6.80;;;2.70;;
59970;SDS011;45825;45.434;9.116;2023-04-16T01:49:59;5.50;;;2.40;;
59970;SDS011;45825;45.434;9.116;2023-04-16T01:52:25;5.32;;;2.50;;
59970;SDS011;45825;45.434;9.116;2023-04-16T01:54:50;6.43;;;2.60;;
59970;SDS011;45825;45.434;9.116;2023-04-16T01:57:15;7.47;;;2.63;;
59970;SDS011;45825;45.434;9.116;2023-04-16T01:59:41;4.60;;;2.50;;
59970;SDS011;45825;45.434;9.116;2023-04-16T02:02:07;6.35;;;2.67;;
59970;SDS011;45825;45.434;9.116;2023-04-16T02:04:39;6.30;;;2.70;;
59970;SDS011;45825;45.434;9.116;2023-04-16T02:07:06;6.47;;;2.50;;
59970;SDS011;45825;45.434;9.116;2023-04-16T02:09:36;6.15;;;2.40;;
59970;SDS011;45825;45.434;9.116;2023-04-16T02:12:02;6.63;;;2.83;;
59970;SDS011;45825;45.434;9.116;2023-04-16T02:14:28;5.80;;;2.30;;
59970;SDS011;45825;45.434;9.116;2023-04-16T02:16:54;6.20;;;2.20;;
59970;SDS011;45825;45.434;9.116;2023-04-16T02:19:20;5.82;;;2.10;;
59970;SDS011;45825;45.434;9.116;2023-04-16T02:21:46;7.95;;;2.50;;
59970;SDS011;45825;45.434;9.116;2023-04-16T02:24:11;5.40;;;2.55;;
59970;SDS011;45825;45.434;9.116;2023-04-16T02:26:37;4.75;;;2.30;;
59970;SDS011;45825;45.434;9.116;2023-04-16T02:29:03;6.75;;;2.50;;
59970;SDS011;45825;45.434;9.116;2023-04-16T02:31:28;11.50;;;4.55;;
59970;SDS011;45825;45.434;9.116;2023-04-16T02:33:54;5.55;;;2.50;;
59970;SDS011;45825;45.434;9.116;2023-04-16T02:36:20;9.30;;;2.60;;
59970;SDS011;45825;45.434;9.116;2023-04-16T02:38:45;8.98;;;3.20;;
59970;SDS011;45825;45.434;9.116;2023-04-16T02:41:10;8.13;;;3.15;;
59970;SDS011;45825;45.434;9.116;2023-04-16T02:43:36;6.40;;;2.92;;
59970;SDS011;45825;45.434;9.116;2023-04-16T02:46:01;5.80;;;2.47;;
59970;SDS011;45825;45.434;9.116;2023-04-16T02:48:26;5.72;;;2.30;;
59970;SDS011;45825;45.434;9.116;2023-04-16T02:50:52;8.38;;;2.85;;
59970;SDS011;45825;45.434;9.116;2023-04-16T02:53:17;7.28;;;2.78;;
59970;SDS011;45825;45.434;9.116;2023-04-16T02:55:48;6.65;;;3.05;;
59970;SDS011;45825;45.434;9.116;2023-04-16T02:58:16;8.20;;;3.30;;
59970;SDS011;45825;45.434;9.116;2023-04-16T03:00:41;6.82;;;3.20;;
59970;SDS011;45825;45.434;9.116;2023-04-16T03:03:07;9.00;;;3.50;;
59970;SDS011;45825;45.434;9.116;2023-04-16T03:05:35;6.00;;;3.20;;
59970;SDS011;45825;45.434;9.116;2023-04-16T03:08:02;7.70;;;3.80;;
59970;SDS011;45825;45.434;9.116;2023-04-16T03:10:27;9.45;;;4.18;;
59970;SDS011;45825;45.434;9.116;2023-04-16T03:12:53;10.02;;;4.95;;
59970;SDS011;45825;45.434;9.116;2023-04-16T03:15:18;10.05;;;4.22;;
59970;SDS011;45825;45.434;9.116;2023-04-16T03:17:44;9.63;;;4.68;;
59970;SDS011;45825;45.434;9.116;2023-04-16T03:20:09;8.35;;;4.03;;
59970;SDS011;45825;45.434;9.116;2023-04-16T03:22:35;10.60;;;4.10;;
59970;SDS011;45825;45.434;9.116;2023-04-16T03:25:02;8.32;;;4.43;;
59970;SDS011;45825;45.434;9.116;2023-04-16T03:27:28;7.13;;;3.85;;
59970;SDS011;45825;45.434;9.116;2023-04-16T03:29:53;7.45;;;3.38;;
59970;SDS011;45825;45.434;9.116;2023-04-16T03:32:19;8.27;;;3.10;;
59970;SDS011;45825;45.434;9.116;2023-04-16T03:34:44;7.43;;;3.30;;
59970;SDS011;45825;45.434;9.116;2023-04-16T03:37:10;7.85;;;3.00;;
59970;SDS011;45825;45.434;9.116;2023-04-16T03:39:36;6.95;;;3.10;;
59970;SDS011;45825;45.434;9.116;2023-04-16T03:42:01;8.23;;;3.05;;
59970;SDS011;45825;45.434;9.116;2023-04-16T03:44:27;8.48;;;3.35;;
59970;SDS011;45825;45.434;9.116;2023-04-16T03:46:53;6.88;;;3.10;;
59970;SDS011;45825;45.434;9.116;2023-04-16T03:49:18;4.90;;;2.60;;
59970;SDS011;45825;45.434;9.116;2023-04-16T03:51:44;7.60;;;2.83;;
59970;SDS011;45825;45.434;9.116;2023-04-16T03:54:09;8.00;;;3.00;;
59970;SDS011;45825;45.434;9.116;2023-04-16T03:56:34;7.55;;;2.78;;
59970;SDS011;45825;45.434;9.116;2023-04-16T03:59:00;5.80;;;2.67;;
59970;SDS011;45825;45.434;9.116;2023-04-16T04:01:25;7.63;;;3.22;;
59970;SDS011;45825;45.434;9.116;2023-04-16T04:03:50;6.28;;;2.83;;
59970;SDS011;45825;45.434;9.116;2023-04-16T04:06:15;7.40;;;2.83;;
59970;SDS011;45825;45.434;9.116;2023-04-16T04:08:41;7.55;;;3.20;;
59970;SDS011;45825;45.434;9.116;2023-04-16T04:11:06;7.63;;;3.20;;
59970;SDS011;45825;45.434;9.116;2023-04-16T04:13:31;6.72;;;2.88;;
59970;SDS011;45825;45.434;9.116;2023-04-16T04:15:57;7.05;;;2.90;;
59970;SDS011;45825;45.434;9.116;2023-04-16T04:18:23;6.22;;;3.00;;
59970;SDS011;45825;45.434;9.116;2023-04-16T04:20:49;8.88;;;2.88;;
59970;SDS011;45825;45.434;9.116;2023-04-16T04:23:15;8.10;;;3.20;;
59970;SDS011;45825;45.434;9.116;2023-04-16T04:25:40;6.05;;;3.05;;
59970;SDS011;45825;45.434;9.116;2023-04-16T04:28:06;6.30;;;2.80;;
59970;SDS011;45825;45.434;9.116;2023-04-16T04:30:32;7.68;;;3.17;;
59970;SDS011;45825;45.434;9.116;2023-04-16T04:32:59;8.93;;;3.40;;
59970;SDS011;45825;45.434;9.116;2023-04-16T04:35:26;7.85;;;3.50;;
59970;SDS011;45825;45.434;9.116;2023-04-16T04:37:51;6.15;;;3.03;;
59970;SDS011;45825;45.434;9.116;2023-04-16T04:40:16;7.53;;;3.25;;
59970;SDS011;45825;45.434;9.116;2023-04-16T04:42:42;8.45;;;3.30;;
59970;SDS011;45825;45.434;9.116;2023-04-16T04:45:07;7.28;;;3.42;;
59970;SDS011;45825;45.434;9.116;2023-04-16T04:47:33;8.68;;;3.28;;
59970;SDS011;45825;45.434;9.116;2023-04-16T04:49:58;8.43;;;3.47;;
59970;SDS011;45825;45.434;9.116;2023-04-16T04:52:24;8.70;;;4.32;;
59970;SDS011;45825;45.434;9.116;2023-04-16T04:54:49;6.85;;;3.35;;
59970;SDS011;45825;45.434;9.116;2023-04-16T04:57:15;7.63;;;3.40;;
59970;SDS011;45825;45.434;9.116;2023-04-16T04:59:40;9.75;;;3.47;;
59970;SDS011;45825;45.434;9.116;2023-04-16T05:02:07;7.20;;;3.45;;
59970;SDS011;45825;45.434;9.116;2023-04-16T05:04:32;9.02;;;4.15;;
59970;SDS011;45825;45.434;9.116;2023-04-16T05:06:57;6.93;;;3.60;;
59970;SDS011;45825;45.434;9.116;2023-04-16T05:09:23;8.38;;;3.83;;
59970;SDS011;45825;45.434;9.116;2023-04-16T05:11:48;10.07;;;3.63;;
59970;SDS011;45825;45.434;9.116;2023-04-16T05:14:13;7.53;;;3.50;;
59970;SDS011;45825;45.434;9.116;2023-04-16T05:16:40;7.13;;;3.28;;
59970;SDS011;45825;45.434;9.116;2023-04-16T05:19:05;8.30;;;3.50;;
59970;SDS011;45825;45.434;9.116;2023-04-16T05:21:31;7.15;;;3.58;;
59970;SDS011;45825;45.434;9.116;2023-04-16T05:23:57;8.85;;;3.60;;
59970;SDS011;45825;45.434;9.116;2023-04-16T05:26:22;8.70;;;3.45;;
59970;SDS011;45825;45.434;9.116;2023-04-16T05:28:48;8.88;;;3.58;;
59970;SDS011;45825;45.434;9.116;2023-04-16T05:31:13;6.18;;;3.00;;
59970;SDS011;45825;45.434;9.116;2023-04-16T05:33:38;8.68;;;3.65;;
59970;SDS011;45825;45.434;9.116;2023-04-16T05:36:04;8.38;;;3.35;;
59970;SDS011;45825;45.434;9.116;2023-04-16T05:38:29;9.43;;;4.13;;
59970;SDS011;45825;45.434;9.116;2023-04-16T05:40:54;9.27;;;3.95;;
59970;SDS011;45825;45.434;9.116;2023-04-16T05:43:20;9.25;;;4.10;;
59970;SDS011;45825;45.434;9.116;2023-04-16T05:45:45;8.55;;;4.15;;
59970;SDS011;45825;45.434;9.116;2023-04-16T05:48:10;11.65;;;4.35;;
59970;SDS011;45825;45.434;9.116;2023-04-16T05:50:36;11.07;;;4.30;;
59970;SDS011;45825;45.434;9.116;2023-04-16T05:53:03;8.55;;;3.80;;
59970;SDS011;45825;45.434;9.116;2023-04-16T05:55:31;9.57;;;4.00;;
59970;SDS011;45825;45.434;9.116;2023-04-16T05:58:00;11.10;;;4.13;;
59970;SDS011;45825;45.434;9.116;2023-04-16T06:16:32;7.90;;;3.53;;
59970;SDS011;45825;45.434;9.116;2023-04-16T06:18:57;8.57;;;3.80;;
59970;SDS011;45825;45.434;9.116;2023-04-16T06:21:23;7.35;;;3.50;;
59970;SDS011;45825;45.434;9.116;2023-04-16T06:23:48;9.52;;;3.60;;
59970;SDS011;45825;45.434;9.116;2023-04-16T06:26:13;7.22;;;3.28;;
59970;SDS011;45825;45.434;9.116;2023-04-16T06:28:39;6.65;;;2.92;;
59970;SDS011;45825;45.434;9.116;2023-04-16T06:31:05;7.90;;;3.40;;
59970;SDS011;45825;45.434;9.116;2023-04-16T06:33:31;5.75;;;2.85;;
59970;SDS011;45825;45.434;9.116;2023-04-16T06:35:56;7.28;;;2.97;;
59970;SDS011;45825;45.434;9.116;2023-04-16T06:38:21;9.10;;;3.55;;
59970;SDS011;45825;45.434;9.116;2023-04-16T06:40:47;8.85;;;3.40;;
59970;SDS011;45825;45.434;9.116;2023-04-16T06:43:13;7.63;;;3.00;;
59970;SDS011;45825;45.434;9.116;2023-04-16T06:45:39;7.55;;;2.90;;
59970;SDS011;45825;45.434;9.116;2023-04-16T06:48:05;9.45;;;3.00;;
59970;SDS011;45825;45.434;9.116;2023-04-16T06:50:30;8.00;;;3.10;;
59970;SDS011;45825;45.434;9.116;2023-04-16T06:52:56;9.75;;;3.03;;
59970;SDS011;45825;45.434;9.116;2023-04-16T06:55:21;7.78;;;3.40;;
59970;SDS011;45825;45.434;9.116;2023-04-16T06:57:46;10.15;;;3.88;;
59970;SDS011;45825;45.434;9.116;2023-04-16T07:00:13;8.43;;;4.07;;
59970;SDS011;45825;45.434;9.116;2023-04-16T07:02:38;10.68;;;3.78;;
59970;SDS011;45825;45.434;9.116;2023-04-16T07:05:04;10.93;;;4.20;;
59970;SDS011;45825;45.434;9.116;2023-04-16T07:07:31;9.60;;;4.03;;
59970;SDS011;45825;45.434;9.116;2023-04-16T07:09:57;10.10;;;3.97;;
59970;SDS011;45825;45.434;9.116;2023-04-16T07:12:23;10.05;;;3.92;;
59970;SDS011;45825;45.434;9.116;2023-04-16T07:14:48;8.75;;;4.18;;
59970;SDS011;45825;45.434;9.116;2023-04-16T07:17:13;10.07;;;4.40;;
59970;SDS011;45825;45.434;9.116;2023-04-16T07:19:39;11.15;;;3.75;;
59970;SDS011;45825;45.434;9.116;2023-04-16T07:22:04;8.75;;;4.13;;
59970;SDS011;45825;45.434;9.116;2023-04-16T07:24:30;11.60;;;4.90;;
59970;SDS011;45825;45.434;9.116;2023-04-16T07:26:56;9.07;;;4.35;;
59970;SDS011;45825;45.434;9.116;2023-04-16T07:29:21;8.73;;;4.35;;
59970;SDS011;45825;45.434;9.116;2023-04-16T07:31:48;9.43;;;4.50;;
59970;SDS011;45825;45.434;9.116;2023-04-16T07:34:13;10.23;;;4.60;;
59970;SDS011;45825;45.434;9.116;2023-04-16T07:36:38;9.18;;;4.18;;
59970;SDS011;45825;45.434;9.116;2023-04-16T07:39:04;8.95;;;3.88;;
59970;SDS011;45825;45.434;9.116;2023-04-16T07:41:30;9.40;;;4.30;;
59970;SDS011;45825;45.434;9.116;2023-04-16T07:43:55;12.45;;;4.32;;
59970;SDS011;45825;45.434;9.116;2023-04-16T07:46:22;9.48;;;3.85;;
59970;SDS011;45825;45.434;9.116;2023-04-16T07:48:48;8.68;;;4.40;;
59970;SDS011;45825;45.434;9.116;2023-04-16T07:51:13;10.13;;;4.68;;
59970;SDS011;45825;45.434;9.116;2023-04-16T07:53:40;8.40;;;3.97;;
59970;SDS011;45825;45.434;9.116;2023-04-16T07:56:06;11.23;;;4.57;;
59970;SDS011;45825;45.434;9.116;2023-04-16T07:58:32;8.70;;;4.22;;
59970;SDS011;45825;45.434;9.116;2023-04-16T08:00:58;8.52;;;4.45;;
59970;SDS011;45825;45.434;9.116;2023-04-16T08:03:23;8.80;;;4.13;;
59970;SDS011;45825;45.434;9.116;2023-04-16T08:05:48;8.82;;;4.10;;
59970;SDS011;45825;45.434;9.116;2023-04-16T08:08:14;9.95;;;4.30;;
59970;SDS011;45825;45.434;9.116;2023-04-16T08:10:39;8.98;;;4.10;;
59970;SDS011;45825;45.434;9.116;2023-04-16T08:13:04;7.72;;;3.50;;
59970;SDS011;45825;45.434;9.116;2023-04-16T08:15:30;9.55;;;4.00;;
59970;SDS011;45825;45.434;9.116;2023-04-16T08:17:55;8.57;;;3.90;;
59970;SDS011;45825;45.434;9.116;2023-04-16T08:20:21;10.90;;;4.43;;
59970;SDS011;45825;45.434;9.116;2023-04-16T08:22:46;9.32;;;4.55;;
59970;SDS011;45825;45.434;9.116;2023-04-16T08:25:13;8.88;;;4.40;;
59970;SDS011;45825;45.434;9.116;2023-04-16T08:27:38;11.60;;;4.20;;
59970;SDS011;45825;45.434;9.116;2023-04-16T08:30:06;6.68;;;3.75;;
59970;SDS011;45825;45.434;9.116;2023-04-16T08:32:32;8.50;;;3.78;;
59970;SDS011;45825;45.434;9.116;2023-04-16T08:34:58;8.10;;;3.72;;
59970;SDS011;45825;45.434;9.116;2023-04-16T08:37:24;8.85;;;3.75;;
59970;SDS011;45825;45.434;9.116;2023-04-16T08:39:50;8.25;;;3.90;;
59970;SDS011;45825;45.434;9.116;2023-04-16T08:42:32;9.65;;;3.80;;
59970;SDS011;45825;45.434;9.116;2023-04-16T08:45:15;10.20;;;4.03;;
59970;SDS011;45825;45.434;9.116;2023-04-16T08:47:44;8.73;;;3.50;;
59970;SDS011;45825;45.434;9.116;2023-04-16T08:50:15;8.20;;;3.53;;
59970;SDS011;45825;45.434;9.116;2023-04-16T08:52:44;7.18;;;3.47;;
59970;SDS011;45825;45.434;9.116;2023-04-16T08:55:14;10.68;;;3.88;;
59970;SDS011;45825;45.434;9.116;2023-04-16T08:57:46;10.65;;;3.92;;
59970;SDS011;45825;45.434;9.116;2023-04-16T09:00:15;9.93;;;4.13;;
59970;SDS011;45825;45.434;9.116;2023-04-16T09:02:41;6.95;;;3.65;;
59970;SDS011;45825;45.434;9.116;2023-04-16T09:05:08;12.27;;;4.15;;
59970;SDS011;45825;45.434;9.116;2023-04-16T09:07:36;9.32;;;4.22;;
59970;SDS011;45825;45.434;9.116;2023-04-16T09:10:03;8.45;;;3.88;;
59970;SDS011;45825;45.434;9.116;2023-04-16T09:12:31;7.43;;;3.28;;
59970;SDS011;45825;45.434;9.116;2023-04-16T09:14:56;8.00;;;3.92;;
59970;SDS011;45825;45.434;9.116;2023-04-16T09:17:25;10.80;;;4.18;;
59970;SDS011;45825;45.434;9.116;2023-04-16T09:19:51;8.73;;;4.18;;
59970;SDS011;45825;45.434;9.116;2023-04-16T09:22:16;7.40;;;4.10;;
59970;SDS011;45825;45.434;9.116;2023-04-16T09:24:42;9.18;;;4.10;;
59970;SDS011;45825;45.434;9.116;2023-04-16T09:27:07;13.90;;;7.32;;
59970;SDS011;45825;45.434;9.116;2023-04-16T09:29:36;10.88;;;5.22;;
59970;SDS011;45825;45.434;9.116;2023-04-16T09:32:05;8.30;;;3.78;;
59970;SDS011;45825;45.434;9.116;2023-04-16T09:34:33;10.50;;;3.40;;
59970;SDS011;45825;45.434;9.116;2023-04-16T09:37:17;9.70;;;3.85;;
59970;SDS011;45825;45.434;9.116;2023-04-16T09:39:43;8.30;;;4.10;;
59970;SDS011;45825;45.434;9.116;2023-04-16T09:42:09;7.60;;;4.50;;
59970;SDS011;45825;45.434;9.116;2023-04-16T09:44:35;7.90;;;4.22;;
59970;SDS011;45825;45.434;9.116;2023-04-16T09:47:08;8.48;;;4.43;;
59970;SDS011;45825;45.434;9.116;2023-04-16T09:49:34;7.00;;;3.97;;
59970;SDS011;45825;45.434;9.116;2023-04-16T09:52:07;8.27;;;4.10;;
59970;SDS011;45825;45.434;9.116;2023-04-16T09:54:50;7.00;;;3.70;;
59970;SDS011;45825;45.434;9.116;2023-04-16T09:57:20;8.43;;;3.53;;
59970;SDS011;45825;45.434;9.116;2023-04-16T09:59:47;7.75;;;4.00;;
59970;SDS011;45825;45.434;9.116;2023-04-16T10:02:16;8.48;;;4.30;;
59970;SDS011;45825;45.434;9.116;2023-04-16T10:04:51;8.70;;;4.47;;
59970;SDS011;45825;45.434;9.116;2023-04-16T10:07:16;9.35;;;4.30;;
59970;SDS011;45825;45.434;9.116;2023-04-16T10:09:42;11.98;;;4.80;;
59970;SDS011;45825;45.434;9.116;2023-04-16T10:12:09;8.05;;;4.82;;
59970;SDS011;45825;45.434;9.116;2023-04-16T10:14:36;8.82;;;4.25;;
59970;SDS011;45825;45.434;9.116;2023-04-16T10:17:02;8.48;;;4.40;;
59970;SDS011;45825;45.434;9.116;2023-04-16T10:19:30;7.88;;;4.82;;
59970;SDS011;45825;45.434;9.116;2023-04-16T10:21:56;9.85;;;4.40;;
59970;SDS011;45825;45.434;9.116;2023-04-16T10:24:22;24.13;;;5.55;;
59970;SDS011;45825;45.434;9.116;2023-04-16T10:26:56;9.85;;;3.75;;
59970;SDS011;45825;45.434;9.116;2023-04-16T10:29:24;29.10;;;5.15;;
59970;SDS011;45825;45.434;9.116;2023-04-16T10:31:51;18.60;;;4.88;;
59970;SDS011;45825;45.434;9.116;2023-04-16T10:34:18;7.38;;;3.85;;
59970;SDS011;45825;45.434;9.116;2023-04-16T10:36:47;9.30;;;4.10;;
59970;SDS011;45825;45.434;9.116;2023-04-16T10:39:14;8.40;;;4.00;;
59970;SDS011;45825;45.434;9.116;2023-04-16T10:41:42;7.68;;;3.40;;
59970;SDS011;45825;45.434;9.116;2023-04-16T10:44:08;6.43;;;3.88;;
59970;SDS011;45825;45.434;9.116;2023-04-16T10:46:41;7.63;;;3.72;;
59970;SDS011;45825;45.434;9.116;2023-04-16T10:49:17;8.13;;;3.60;;
59970;SDS011;45825;45.434;9.116;2023-04-16T10:51:56;7.43;;;3.97;;
59970;SDS011;45825;45.434;9.116;2023-04-16T10:54:26;7.53;;;3.55;;
59970;SDS011;45825;45.434;9.116;2023-04-16T10:56:56;10.48;;;4.07;;
59970;SDS011;45825;45.434;9.116;2023-04-16T10:59:23;8.20;;;3.63;;
59970;SDS011;45825;45.434;9.116;2023-04-16T11:01:54;7.57;;;3.80;;
59970;SDS011;45825;45.434;9.116;2023-04-16T11:12:42;7.35;;;2.80;;
59970;SDS011;45825;45.434;9.116;2023-04-16T11:17:37;6.68;;;3.25;;
59970;SDS011;45825;45.434;9.116;2023-04-16T11:20:05;8.02;;;3.13;;
59970;SDS011;45825;45.434;9.116;2023-04-16T11:22:33;7.07;;;2.90;;
59970;SDS011;45825;45.434;9.116;2023-04-16T11:25:03;7.20;;;3.42;;
59970;SDS011;45825;45.434;9.116;2023-04-16T11:27:29;6.18;;;2.97;;
59970;SDS011;45825;45.434;9.116;2023-04-16T11:29:55;6.00;;;2.70;;
59970;SDS011;45825;45.434;9.116;2023-04-16T11:32:24;5.60;;;2.85;;
59970;SDS011;45825;45.434;9.116;2023-04-16T11:34:50;8.85;;;2.95;;
59970;SDS011;45825;45.434;9.116;2023-04-16T11:37:18;7.88;;;2.50;;
59970;SDS011;45825;45.434;9.116;2023-04-16T11:39:48;6.43;;;2.00;;
59970;SDS011;45825;45.434;9.116;2023-04-16T11:42:20;7.13;;;2.88;;
59970;SDS011;45825;45.434;9.116;2023-04-16T11:44:57;4.95;;;2.38;;
59970;SDS011;45825;45.434;9.116;2023-04-16T11:47:27;7.10;;;3.10;;
59970;SDS011;45825;45.434;9.116;2023-04-16T11:49:54;4.97;;;2.58;;
59970;SDS011;45825;45.434;9.116;2023-04-16T11:52:23;6.22;;;2.80;;
59970;SDS011;45825;45.434;9.116;2023-04-16T11:57:22;6.60;;;2.95;;
59970;SDS011;45825;45.434;9.116;2023-04-16T11:59:49;6.22;;;2.72;;
59970;SDS011;45825;45.434;9.116;2023-04-16T12:02:14;7.93;;;2.70;;
59970;SDS011;45825;45.434;9.116;2023-04-16T12:04:41;5.72;;;2.90;;
59970;SDS011;45825;45.434;9.116;2023-04-16T12:07:10;5.75;;;2.30;;
59970;SDS011;45825;45.434;9.116;2023-04-16T12:09:38;8.43;;;2.88;;
59970;SDS011;45825;45.434;9.116;2023-04-16T12:12:04;9.57;;;3.30;;
59970;SDS011;45825;45.434;9.116;2023-04-16T12:14:30;7.82;;;3.00;;
59970;SDS011;45825;45.434;9.116;2023-04-16T12:17:15;6.78;;;2.40;;
59970;SDS011;45825;45.434;9.116;2023-04-16T12:19:56;7.60;;;2.72;;
59970;SDS011;45825;45.434;9.116;2023-04-16T12:22:30;6.90;;;2.80;;
59970;SDS011;45825;45.434;9.116;2023-04-16T12:25:03;8.00;;;3.42;;
59970;SDS011;45825;45.434;9.116;2023-04-16T12:27:41;8.50;;;2.38;;
59970;SDS011;45825;45.434;9.116;2023-04-16T12:30:19;10.93;;;3.03;;
59970;SDS011;45825;45.434;9.116;2023-04-16T12:32:50;9.43;;;2.75;;
59970;SDS011;45825;45.434;9.116;2023-04-16T12:35:36;5.32;;;2.35;;
59970;SDS011;45825;45.434;9.116;2023-04-16T12:38:01;6.05;;;2.30;;
59970;SDS011;45825;45.434;9.116;2023-04-16T12:40:27;6.03;;;2.83;;
59970;SDS011;45825;45.434;9.116;2023-04-16T12:42:54;9.20;;;3.05;;
59970;SDS011;45825;45.434;9.116;2023-04-16T12:45:19;7.82;;;2.80;;
59970;SDS011;45825;45.434;9.116;2023-04-16T12:47:45;7.30;;;2.80;;
59970;SDS011;45825;45.434;9.116;2023-04-16T12:50:12;7.28;;;3.08;;
59970;SDS011;45825;45.434;9.116;2023-04-16T12:52:37;8.23;;;3.45;;
59970;SDS011;45825;45.434;9.116;2023-04-16T12:55:03;6.55;;;2.75;;
59970;SDS011;45825;45.434;9.116;2023-04-16T12:57:28;6.43;;;2.60;;
59970;SDS011;45825;45.434;9.116;2023-04-16T12:59:54;7.68;;;3.20;;
59970;SDS011;45825;45.434;9.116;2023-04-16T13:02:23;6.30;;;3.05;;
59970;SDS011;45825;45.434;9.116;2023-04-16T13:04:49;5.45;;;2.30;;
59970;SDS011;45825;45.434;9.116;2023-04-16T13:07:18;5.55;;;2.50;;
59970;SDS011;45825;45.434;9.116;2023-04-16T13:09:44;5.75;;;2.60;;
59970;SDS011;45825;45.434;9.116;2023-04-16T13:12:10;5.95;;;2.80;;
59970;SDS011;45825;45.434;9.116;2023-04-16T13:14:38;4.57;;;2.13;;
59970;SDS011;45825;45.434;9.116;2023-04-16T13:17:04;6.07;;;2.38;;
59970;SDS011;45825;45.434;9.116;2023-04-16T13:19:29;7.22;;;2.30;;
59970;SDS011;45825;45.434;9.116;2023-04-16T13:21:55;5.97;;;2.72;;
59970;SDS011;45825;45.434;9.116;2023-04-16T13:24:21;5.75;;;2.25;;
59970;SDS011;45825;45.434;9.116;2023-04-16T13:26:49;8.27;;;2.58;;
59970;SDS011;45825;45.434;9.116;2023-04-16T13:29:15;6.93;;;2.45;;
59970;SDS011;45825;45.434;9.116;2023-04-16T13:31:41;7.38;;;2.90;;
59970;SDS011;45825;45.434;9.116;2023-04-16T13:34:06;6.55;;;3.00;;
59970;SDS011;45825;45.434;9.116;2023-04-16T13:36:32;7.07;;;2.53;;
59970;SDS011;45825;45.434;9.116;2023-04-16T13:38:58;7.10;;;2.42;;
59970;SDS011;45825;45.434;9.116;2023-04-16T13:41:23;8.40;;;2.38;;
59970;SDS011;45825;45.434;9.116;2023-04-16T13:43:48;5.65;;;2.70;;
59970;SDS011;45825;45.434;9.116;2023-04-16T13:46:14;6.53;;;2.85;;
59970;SDS011;45825;45.434;9.116;2023-04-16T13:48:39;5.80;;;2.40;;
59970;SDS011;45825;45.434;9.116;2023-04-16T13:51:05;5.75;;;2.40;;
59970;SDS011;45825;45.434;9.116;2023-04-16T13:53:31;6.47;;;2.72;;
59970;SDS011;45825;45.434;9.116;2023-04-16T13:55:57;6.32;;;2.17;;
59970;SDS011;45825;45.434;9.116;2023-04-16T13:58:22;5.15;;;2.15;;
59970;SDS011;45825;45.434;9.116;2023-04-16T14:00:48;5.07;;;2.17;;
59970;SDS011;45825;45.434;9.116;2023-04-16T14:03:13;5.65;;;2.50;;
59970;SDS011;45825;45.434;9.116;2023-04-16T14:05:42;7.50;;;2.67;;
59970;SDS011;45825;45.434;9.116;2023-04-16T14:08:08;6.20;;;2.28;;
59970;SDS011;45825;45.434;9.116;2023-04-16T14:10:34;6.22;;;2.38;;
59970;SDS011;45825;45.434;9.116;2023-04-16T14:13:00;5.68;;;2.47;;
59970;SDS011;45825;45.434;9.116;2023-04-16T14:15:25;6.90;;;2.42;;
59970;SDS011;45825;45.434;9.116;2023-04-16T14:17:54;7.38;;;2.60;;
59970;SDS011;45825;45.434;9.116;2023-04-16T14:20:19;5.57;;;2.35;;
59970;SDS011;45825;45.434;9.116;2023-04-16T14:22:45;6.35;;;2.03;;
59970;SDS011;45825;45.434;9.116;2023-04-16T14:25:10;4.93;;;2.03;;
59970;SDS011;45825;45.434;9.116;2023-04-16T14:27:36;6.85;;;2.47;;
59970;SDS011;45825;45.434;9.116;2023-04-16T14:30:01;5.25;;;1.90;;
59970;SDS011;45825;45.434;9.116;2023-04-16T14:32:26;5.60;;;2.00;;
59970;SDS011;45825;45.434;9.116;2023-04-16T14:34:52;6.45;;;2.08;;
59970;SDS011;45825;45.434;9.116;2023-04-16T14:37:17;6.10;;;2.10;;
59970;SDS011;45825;45.434;9.116;2023-04-16T14:39:43;3.97;;;1.90;;
59970;SDS011;45825;45.434;9.116;2023-04-16T14:42:09;4.72;;;2.00;;
59970;SDS011;45825;45.434;9.116;2023-04-16T14:44:35;6.28;;;2.05;;
59970;SDS011;45825;45.434;9.116;2023-04-16T14:47:00;4.57;;;1.88;;
59970;SDS011;45825;45.434;9.116;2023-04-16T14:49:26;5.90;;;2.00;;
59970;SDS011;45825;45.434;9.116;2023-04-16T14:51:51;4.07;;;1.70;;
59970;SDS011;45825;45.434;9.116;2023-04-16T14:54:17;6.95;;;1.90;;
59970;SDS011;45825;45.434;9.116;2023-04-16T14:56:43;5.13;;;1.95;;
59970;SDS011;45825;45.434;9.116;2023-04-16T14:59:11;5.63;;;1.98;;
59970;SDS011;45825;45.434;9.116;2023-04-16T15:01:36;6.13;;;1.90;;
59970;SDS011;45825;45.434;9.116;2023-04-16T15:04:05;6.20;;;2.45;;
59970;SDS011;45825;45.434;9.116;2023-04-16T15:06:32;6.88;;;2.17;;
59970;SDS011;45825;45.434;9.116;2023-04-16T15:08:58;4.50;;;1.75;;
59970;SDS011;45825;45.434;9.116;2023-04-16T15:11:25;5.40;;;1.65;;